createdAt,value
2022-11-16T04:59:42.656Z,6.78
2022-11-16T05:02:46.110Z,6.79
2022-11-16T05:05:50.298Z,6.77
2022-11-16T05:08:53.302Z,6.75
2022-11-16T05:11:55.830Z,6.79
2022-11-16T05:14:59.250Z,6.75
2022-11-16T05:18:01.972Z,6.75
2022-11-16T05:21:05.061Z,6.76
2022-11-16T05:24:27.173Z,6.78
2022-11-16T05:27:31.046Z,6.86
2022-11-16T05:30:33.664Z,6.89
2022-11-16T05:33:38.052Z,6.85
2022-11-16T05:36:40.982Z,6.77
2022-11-16T05:39:44.053Z,6.80
2022-11-16T05:42:46.690Z,6.80
2022-11-16T05:45:49.470Z,6.76
2022-11-16T05:48:52.259Z,6.72
2022-11-16T05:51:55.125Z,6.77
2022-11-16T05:54:57.927Z,6.81
2022-11-16T05:58:01.031Z,6.77
2022-11-16T06:01:04.079Z,6.80
2022-11-16T06:04:07.747Z,6.84
2022-11-16T06:07:10.426Z,6.87
2022-11-16T06:10:13.342Z,6.82
2022-11-16T06:13:17.296Z,6.82
2022-11-16T06:16:20.344Z,6.86
2022-11-16T06:19:26.960Z,6.93
2022-11-16T06:22:32.989Z,6.96
2022-11-16T06:25:38.532Z,6.92
2022-11-16T06:28:41.828Z,6.96
2022-11-16T06:31:44.534Z,6.95
2022-11-16T06:34:48.207Z,6.96
2022-11-16T06:37:51.156Z,6.95
2022-11-16T06:40:58.324Z,6.97
2022-11-16T06:44:01.688Z,6.96
2022-11-16T06:47:05.127Z,7.05
2022-11-16T06:50:08.851Z,7.04
2022-11-16T06:53:11.661Z,7.02
2022-11-16T06:56:16.350Z,7.01
2022-11-16T06:59:19.820Z,7.12
2022-11-16T07:02:23.261Z,7.15
2022-11-16T07:05:26.204Z,7.02
2022-11-16T07:08:30.187Z,7.06
2022-11-16T07:11:34.634Z,7.09
2022-11-16T07:14:37.507Z,7.09
2022-11-16T07:17:41.515Z,7.06
2022-11-16T07:20:44.424Z,7.20
2022-11-16T07:23:47.358Z,7.20
2022-11-16T07:26:50.864Z,7.27
2022-11-16T07:29:54.301Z,7.25
2022-11-16T07:32:58.918Z,7.22
2022-11-16T07:36:10.140Z,7.25
2022-11-16T07:39:13.121Z,7.21
2022-11-16T07:42:16.053Z,7.29
2022-11-16T07:45:18.830Z,7.36
2022-11-16T07:48:23.188Z,7.42
2022-11-16T07:51:27.976Z,7.45
2022-11-16T07:54:33.606Z,7.55
2022-11-16T07:57:36.285Z,7.43
2022-11-16T08:00:39.504Z,7.45
2022-11-16T08:03:44.749Z,7.52
2022-11-16T08:06:47.916Z,7.61
2022-11-16T08:09:51.083Z,7.60
2022-11-16T08:12:54.788Z,7.75
2022-11-16T08:16:02.385Z,7.80
2022-11-16T08:19:05.041Z,7.73
2022-11-16T08:22:09.613Z,7.74
2022-11-16T08:25:14.331Z,7.75
2022-11-16T08:28:17.707Z,7.71
2022-11-16T08:31:31.479Z,7.77
2022-11-16T08:34:34.832Z,7.82
2022-11-16T08:37:39.195Z,7.78
2022-11-16T08:40:43.426Z,7.84
2022-11-16T08:43:47.395Z,7.76
2022-11-16T08:46:50.787Z,7.74
2022-11-16T08:49:53.730Z,7.78
2022-11-16T08:52:57.409Z,7.85
2022-11-16T08:56:11.770Z,7.93
2022-11-16T08:59:14.879Z,7.90
2022-11-16T09:02:25.431Z,8.00
2022-11-16T09:05:28.858Z,7.96
2022-11-16T09:08:31.820Z,8.07
2022-11-16T09:11:34.788Z,8.02
2022-11-16T09:14:37.227Z,8.02
2022-11-16T09:17:40.075Z,8.06
2022-11-16T09:20:45.657Z,8.06
2022-11-16T09:23:49.456Z,8.03
2022-11-16T09:26:51.903Z,7.92
2022-11-16T09:29:54.679Z,7.95
2022-11-16T09:32:59.058Z,7.97
2022-11-16T09:36:07.017Z,8.06
2022-11-16T09:39:30.510Z,8.06
2022-11-16T09:43:15.605Z,8.15
2022-11-16T09:46:36.506Z,8.13
2022-11-16T09:50:03.711Z,8.21
2022-11-16T09:53:36.298Z,8.27
2022-11-16T09:56:42.475Z,8.27
2022-11-16T09:59:52.214Z,8.21
2022-11-16T10:03:04.176Z,8.26
2022-11-16T10:06:21.413Z,8.26
2022-11-16T10:09:25.856Z,8.25
2022-11-16T10:12:43.626Z,8.30
2022-11-16T10:16:14.287Z,8.32
2022-11-16T10:19:34.750Z,8.30
2022-11-16T10:22:54.508Z,8.25
2022-11-16T10:26:19.791Z,8.34
2022-11-16T10:29:46.577Z,8.24
2022-11-16T10:32:55.459Z,8.19
2022-11-16T10:35:58.205Z,8.24
2022-11-16T10:39:02.502Z,8.31
2022-11-16T10:42:10.931Z,8.27
2022-11-16T10:45:21.689Z,8.25
2022-11-16T10:48:53.494Z,8.32
2022-11-16T10:51:56.664Z,8.33
2022-11-16T10:54:59.197Z,8.28
2022-11-16T10:58:04.871Z,8.31
2022-11-16T11:01:10.831Z,8.38
2022-11-16T11:04:21.974Z,8.45
2022-11-16T11:07:39.959Z,8.34
2022-11-16T11:10:43.299Z,8.40
2022-11-16T11:13:45.935Z,8.58
2022-11-16T11:16:53.472Z,8.57
2022-11-16T11:20:04.321Z,8.60
2022-11-16T11:23:20.708Z,8.55
2022-11-16T11:26:36.174Z,8.51
2022-11-16T11:29:42.624Z,8.53
2022-11-16T11:32:46.146Z,8.54
2022-11-16T11:35:58.940Z,8.56
2022-11-16T11:39:07.836Z,8.53
2022-11-16T11:42:13.795Z,8.49
2022-11-16T11:45:17.534Z,8.52
2022-11-16T11:48:42.467Z,8.45
2022-11-16T11:51:47.340Z,8.51
2022-11-16T11:54:52.418Z,8.52
2022-11-16T11:57:56.613Z,8.49
2022-11-16T12:01:20.815Z,8.46
2022-11-16T12:04:54.242Z,8.48
2022-11-16T12:08:02.908Z,8.43
2022-11-16T12:11:12.647Z,8.48
2022-11-16T12:14:21.094Z,8.50
2022-11-16T12:17:32.673Z,8.41
2022-11-16T12:21:03.899Z,8.35
2022-11-16T12:24:35.557Z,8.37
2022-11-16T12:28:06.153Z,8.27
2022-11-16T12:31:44.619Z,8.23
2022-11-16T12:35:12.178Z,8.20
2022-11-16T12:38:33.781Z,8.27
2022-11-16T12:41:55.797Z,8.16
2022-11-16T12:45:19.116Z,8.14
2022-11-16T12:48:57.643Z,8.18
2022-11-16T12:52:36.738Z,8.24
2022-11-16T12:55:56.613Z,8.28
2022-11-16T12:59:20.653Z,8.24
2022-11-16T13:02:38.547Z,8.25
2022-11-16T13:06:19.596Z,8.21
2022-11-16T13:09:27.979Z,8.16
2022-11-16T13:12:32.268Z,8.17
2022-11-16T13:15:38.575Z,8.19
2022-11-16T13:18:42.950Z,8.17
2022-11-16T13:21:56.273Z,8.15
2022-11-16T13:25:17.483Z,8.17
2022-11-16T13:28:36.781Z,8.14
2022-11-16T13:32:18.856Z,8.16
2022-11-16T13:35:23.109Z,8.22
2022-11-16T13:38:52.498Z,8.19
2022-11-16T13:42:13.423Z,8.20
2022-11-16T13:45:20.721Z,8.25
2022-11-16T13:48:38.127Z,8.20
2022-11-16T13:51:51.769Z,8.17
2022-11-16T13:54:55.980Z,8.16
2022-11-16T13:58:01.309Z,8.20
2022-11-16T14:01:10.927Z,8.28
2022-11-16T14:04:35.575Z,8.22
2022-11-16T14:07:47.214Z,8.16
2022-11-16T14:10:52.806Z,8.18
2022-11-16T14:13:55.645Z,8.15
2022-11-16T14:16:58.718Z,8.15
2022-11-16T14:20:01.399Z,8.21
2022-11-16T14:23:39.283Z,8.15
2022-11-16T14:27:00.108Z,8.19
2022-11-16T14:30:13.791Z,8.15
2022-11-16T14:33:31.159Z,8.11
2022-11-16T14:36:39.001Z,8.14
2022-11-16T14:39:45.905Z,8.06
2022-11-16T14:46:26.315Z,8.11
2022-11-16T14:49:33.557Z,8.08
2022-11-16T14:52:45.082Z,8.12
2022-11-16T14:55:47.834Z,8.08
2022-11-16T14:59:02.178Z,8.07
2022-11-16T15:02:16.358Z,8.08
2022-11-16T15:05:21.383Z,7.93
2022-11-16T15:08:31.812Z,7.98
2022-11-16T15:11:57.528Z,8.01
2022-11-16T15:15:08.030Z,7.97
2022-11-16T15:18:14.843Z,7.97
2022-11-16T15:21:24.908Z,8.01
2022-11-16T15:24:31.778Z,7.98
2022-11-16T15:27:42.629Z,7.92
2022-11-16T15:30:50.380Z,7.91
2022-11-16T15:33:53.359Z,7.94
2022-11-16T15:36:55.909Z,7.97
2022-11-16T15:40:00.070Z,7.94
2022-11-16T15:43:05.840Z,7.95
2022-11-16T15:46:09.143Z,7.99
2022-11-16T15:49:26.606Z,7.96
2022-11-16T15:52:50.984Z,7.92
2022-11-16T15:55:53.599Z,7.99
2022-11-16T15:58:59.011Z,7.97
2022-11-16T16:02:03.614Z,8.00
2022-11-16T16:05:06.853Z,8.00
2022-11-16T16:08:25.968Z,8.04
2022-11-16T16:11:28.782Z,7.94
2022-11-16T16:14:31.344Z,7.89
2022-11-16T16:17:34.429Z,7.88
2022-11-16T16:20:37.729Z,7.93
2022-11-16T16:23:47.323Z,7.91
2022-11-16T16:26:49.839Z,7.88
2022-11-16T16:30:04.015Z,7.82
2022-11-16T16:33:06.587Z,7.82
2022-11-16T16:36:11.589Z,7.88
2022-11-16T16:39:13.960Z,7.91
2022-11-16T16:42:17.744Z,7.88
2022-11-16T16:45:27.224Z,7.82
2022-11-16T16:48:30.671Z,7.91
2022-11-16T16:51:33.155Z,7.86
2022-11-16T16:54:36.366Z,7.91
2022-11-16T16:57:38.843Z,7.86
